Time;durP1;ratioP1;P1;durP2;ratioP2;P2;SDS_P1;SDS_P2;PMS_P1;PMS_P2;Temp;Humidity;BMP_temperature;BMP_pressure;BME280_temperature;BME280_humidity;BME280_pressure;Samples;Min_cycle;Max_cycle;Signal;HPM_P1;HPM_P2
2022/04/13 00:01:17;;;;;;;7.95;6.35;;;10.00;99.90;;;;;;5006439;28;20418;-73
2022/04/13 00:03:43;;;;;;;16.00;7.82;;;10.00;99.90;;;;;;5007520;28;20109;-73
2022/04/13 00:06:09;;;;;;;12.80;8.43;;;10.00;99.90;;;;;;5009911;28;20025;-71
2022/04/13 00:08:35;;;;;;;14.30;8.15;;;10.10;99.90;;;;;;5006266;28;20014;-70
2022/04/13 00:11:01;;;;;;;9.75;7.10;;;10.00;99.90;;;;;;4997731;28;21880;-72
2022/04/13 00:13:27;;;;;;;12.68;6.63;;;10.00;99.90;;;;;;5007759;28;20030;-73
2022/04/13 00:15:53;;;;;;;9.70;6.15;;;10.00;99.90;;;;;;5005171;28;20402;-74
2022/04/13 00:18:19;;;;;;;8.68;5.15;;;10.10;99.90;;;;;;5004657;28;20105;-72
2022/04/13 00:20:48;;;;;;;11.07;5.35;;;10.00;99.90;;;;;;5009335;28;20453;-75
2022/04/13 00:23:13;;;;;;;11.82;5.88;;;9.90;99.90;;;;;;5009274;28;20033;-74
2022/04/13 00:25:41;;;;;;;8.57;6.55;;;9.90;99.90;;;;;;5006131;28;20018;-73
2022/04/13 00:28:09;;;;;;;10.13;5.13;;;10.00;99.90;;;;;;5006187;28;20033;-75
2022/04/13 00:30:36;;;;;;;6.97;4.72;;;10.10;99.90;;;;;;5004822;28;20025;-72
2022/04/13 00:33:02;;;;;;;7.97;5.07;;;10.10;99.90;;;;;;5004505;28;20037;-70
2022/04/13 00:35:28;;;;;;;11.88;5.10;;;10.10;99.90;;;;;;5007405;28;20029;-71
2022/04/13 00:37:54;;;;;;;6.93;3.90;;;10.10;99.90;;;;;;5008942;28;20033;-72
2022/04/13 00:40:19;;;;;;;6.28;4.68;;;10.10;99.90;;;;;;5007090;28;20102;-72
2022/04/13 00:42:45;;;;;;;5.97;5.15;;;10.00;99.90;;;;;;5009579;28;20111;-70
2022/04/13 00:45:11;;;;;;;12.98;5.68;;;10.00;99.90;;;;;;5012081;28;20093;-69
2022/04/13 00:47:39;;;;;;;10.05;5.10;;;10.00;99.90;;;;;;5012656;28;20049;-68
2022/04/13 00:50:07;;;;;;;9.00;5.00;;;10.00;99.90;;;;;;5012658;28;20101;-69
2022/04/13 00:52:35;;;;;;;7.10;4.90;;;9.90;99.90;;;;;;5009850;28;20018;-71
2022/04/13 00:55:03;;;;;;;7.30;4.63;;;9.80;99.90;;;;;;5011624;28;20026;-69
2022/04/13 00:57:32;;;;;;;7.50;5.10;;;9.90;99.90;;;;;;5011619;28;20022;-71
2022/04/13 01:00:00;;;;;;;10.27;5.05;;;9.80;99.90;;;;;;5005641;28;20080;-69
2022/04/13 01:02:29;;;;;;;6.50;4.40;;;9.70;99.90;;;;;;5010904;28;20018;-70
2022/04/13 01:04:57;;;;;;;9.45;4.30;;;9.70;99.90;;;;;;5009446;28;20363;-72
2022/04/13 01:07:24;;;;;;;10.13;4.50;;;9.70;99.90;;;;;;5012202;28;20029;-72
2022/04/13 01:09:50;;;;;;;17.10;5.10;;;9.70;99.90;;;;;;5011019;28;20033;-71
2022/04/13 01:12:16;;;;;;;7.40;5.70;;;9.60;99.90;;;;;;5012172;28;20018;-70
2022/04/13 01:14:41;;;;;;;6.45;4.65;;;9.60;99.90;;;;;;5012301;28;20033;-71
2022/04/13 01:17:07;;;;;;;9.63;4.32;;;9.60;99.90;;;;;;5011666;28;20120;-71
2022/04/13 01:19:33;;;;;;;7.15;4.07;;;9.60;99.90;;;;;;5011550;28;20028;-72
2022/04/13 01:22:03;;;;;;;7.35;4.55;;;9.50;99.90;;;;;;5012001;28;20026;-70
2022/04/13 01:24:29;;;;;;;12.02;4.18;;;9.50;99.90;;;;;;5011592;28;20017;-70
2022/04/13 01:26:55;;;;;;;8.68;4.90;;;9.60;99.90;;;;;;5011168;28;20026;-71
2022/04/13 01:29:21;;;;;;;8.10;4.90;;;9.60;99.90;;;;;;5009880;28;20109;-76
2022/04/13 01:31:48;;;;;;;11.35;4.40;;;9.50;99.90;;;;;;5006978;28;20451;-72
2022/04/13 01:34:13;;;;;;;10.35;5.05;;;9.50;99.90;;;;;;5010858;28;20050;-72
2022/04/13 01:36:39;;;;;;;8.20;4.13;;;9.60;99.90;;;;;;5006779;28;20034;-69
2022/04/13 01:39:06;;;;;;;6.97;4.72;;;9.60;99.90;;;;;;5008766;28;20208;-71
2022/04/13 01:41:32;;;;;;;8.25;4.53;;;9.50;99.90;;;;;;5010982;28;20022;-70
2022/04/13 01:43:58;;;;;;;7.70;4.47;;;9.60;99.90;;;;;;5007185;28;20445;-70
2022/04/13 01:46:24;;;;;;;8.50;5.10;;;9.60;99.90;;;;;;5007157;28;20021;-71
2022/04/13 01:48:50;;;;;;;8.93;4.28;;;9.50;99.90;;;;;;5011486;28;20049;-70
2022/04/13 01:51:17;;;;;;;9.38;3.83;;;9.60;99.90;;;;;;5011158;28;20017;-70
2022/04/13 01:53:43;;;;;;;10.32;4.18;;;9.60;99.90;;;;;;5009603;28;20030;-70
2022/04/13 01:56:09;;;;;;;6.25;3.90;;;9.50;99.90;;;;;;5008806;28;20037;-70
2022/04/13 01:58:35;;;;;;;11.25;5.07;;;9.50;99.90;;;;;;5009302;28;20117;-70
2022/04/13 02:01:01;;;;;;;10.52;4.75;;;9.50;99.90;;;;;;5010813;28;20334;-72
2022/04/13 02:03:27;;;;;;;14.07;4.65;;;9.50;99.90;;;;;;5011101;28;20017;-70
2022/04/13 02:05:53;;;;;;;4.90;3.53;;;9.50;99.90;;;;;;5011009;28;20053;-71
2022/04/13 02:08:22;;;;;;;9.77;4.93;;;9.40;99.90;;;;;;5003216;28;20033;-68
2022/04/13 02:10:49;;;;;;;13.10;5.50;;;9.40;99.90;;;;;;5010851;28;20060;-76
2022/04/13 02:13:16;;;;;;;6.25;3.83;;;9.50;99.90;;;;;;5005828;28;20473;-69
2022/04/13 02:15:42;;;;;;;9.23;4.13;;;9.40;99.90;;;;;;5010023;28;20101;-70
2022/04/13 02:18:08;;;;;;;9.75;4.35;;;9.40;99.90;;;;;;5010442;28;20029;-70
2022/04/13 02:20:34;;;;;;;8.10;4.82;;;9.50;99.90;;;;;;5010931;28;20018;-70
2022/04/13 02:23:01;;;;;;;9.65;4.05;;;9.50;99.90;;;;;;5010813;28;20026;-69
2022/04/13 02:25:28;;;;;;;8.80;3.20;;;9.50;99.90;;;;;;5008982;28;20120;-72
2022/04/13 02:27:54;;;;;;;10.13;3.83;;;9.50;99.90;;;;;;5007712;28;20030;-72
2022/04/13 02:30:19;;;;;;;7.00;3.25;;;9.50;99.90;;;;;;5010595;28;20531;-72
2022/04/13 02:32:45;;;;;;;6.82;4.15;;;9.50;99.90;;;;;;5010824;28;20026;-72
2022/04/13 02:35:12;;;;;;;5.90;4.05;;;9.50;99.90;;;;;;5010731;28;20092;-73
2022/04/13 02:37:38;;;;;;;7.60;3.58;;;9.50;99.90;;;;;;5007395;28;20034;-71
2022/04/13 02:40:06;;;;;;;6.65;4.22;;;9.40;99.90;;;;;;5008138;28;20409;-70
2022/04/13 02:42:35;;;;;;;9.30;4.70;;;9.40;99.90;;;;;;5006418;28;20026;-70
2022/04/13 02:45:02;;;;;;;4.60;3.13;;;9.40;99.90;;;;;;5000307;28;20054;-71
2022/04/13 02:47:28;;;;;;;7.68;4.00;;;9.30;99.90;;;;;;5003426;28;20038;-69
2022/04/13 02:49:57;;;;;;;6.30;3.63;;;9.30;99.90;;;;;;5006781;28;20041;-72
2022/04/13 02:52:25;;;;;;;11.02;5.07;;;9.30;99.90;;;;;;5009379;28;20045;-73
2022/04/13 02:54:51;;;;;;;7.65;3.40;;;9.20;99.90;;;;;;5008053;28;20026;-73
2022/04/13 02:57:17;;;;;;;8.43;4.07;;;9.30;99.90;;;;;;5004796;28;20040;-74
2022/04/13 02:59:46;;;;;;;10.75;5.03;;;9.30;99.90;;;;;;5006805;28;20034;-71
2022/04/13 03:02:16;;;;;;;8.43;3.50;;;9.40;99.90;;;;;;5005805;28;20032;-70
2022/04/13 03:04:46;;;;;;;8.50;4.50;;;9.40;99.90;;;;;;5008739;28;20099;-71
2022/04/13 03:07:13;;;;;;;6.72;3.63;;;9.40;99.90;;;;;;5009088;28;20026;-74
2022/04/13 03:09:39;;;;;;;5.50;3.65;;;9.40;99.90;;;;;;5010216;28;20072;-70
2022/04/13 03:12:06;;;;;;;6.68;4.03;;;9.40;99.90;;;;;;5010124;28;20102;-70
2022/04/13 03:14:33;;;;;;;3.78;2.92;;;9.40;99.90;;;;;;5009798;28;20163;-73
2022/04/13 03:16:58;;;;;;;9.88;3.85;;;9.40;99.90;;;;;;5006537;28;20502;-72
2022/04/13 03:19:24;;;;;;;5.53;3.50;;;9.40;99.90;;;;;;5010092;28;20041;-70
2022/04/13 03:21:51;;;;;;;5.50;3.25;;;9.30;99.90;;;;;;5010197;28;20046;-73
2022/04/13 03:24:21;;;;;;;6.15;4.70;;;9.40;99.90;;;;;;5009889;28;20034;-71
2022/04/13 03:26:48;;;;;;;8.30;3.08;;;9.30;99.90;;;;;;5007687;28;20010;-69
2022/04/13 03:29:14;;;;;;;5.20;3.33;;;9.30;99.90;;;;;;5009658;28;20029;-70
2022/04/13 03:31:39;;;;;;;10.10;3.67;;;9.30;99.90;;;;;;5011572;28;20022;-70
2022/04/13 03:34:05;;;;;;;5.72;3.63;;;9.30;99.90;;;;;;5010606;28;20474;-71
2022/04/13 03:36:32;;;;;;;6.00;3.65;;;9.30;99.90;;;;;;5007955;28;20163;-72
2022/04/13 03:38:58;;;;;;;24.17;4.57;;;9.30;99.90;;;;;;5007119;28;20025;-70
2022/04/13 03:41:23;;;;;;;9.52;3.90;;;9.30;99.90;;;;;;5009631;28;20482;-71
2022/04/13 03:43:49;;;;;;;9.55;3.47;;;9.30;99.90;;;;;;5010205;28;20101;-74
2022/04/13 03:46:15;;;;;;;7.55;3.88;;;9.30;99.90;;;;;;5010130;28;20026;-69
2022/04/13 03:48:40;;;;;;;13.95;4.32;;;9.20;99.90;;;;;;5010299;28;20072;-69
2022/04/13 03:51:06;;;;;;;5.25;3.75;;;9.30;99.90;;;;;;5009515;28;20076;-69
2022/04/13 03:53:32;;;;;;;6.63;3.70;;;9.30;99.90;;;;;;5009567;28;20041;-70
2022/04/13 03:55:58;;;;;;;16.63;4.15;;;9.30;99.90;;;;;;5000743;28;20134;-73
2022/04/13 03:58:23;;;;;;;7.78;4.25;;;9.30;99.90;;;;;;5007584;28;20484;-73
2022/04/13 04:00:49;;;;;;;10.90;3.53;;;9.30;99.90;;;;;;5009702;28;20082;-70
2022/04/13 04:03:15;;;;;;;6.28;4.18;;;9.30;99.90;;;;;;5009292;28;20088;-70
2022/04/13 04:05:41;;;;;;;9.38;4.15;;;9.30;99.90;;;;;;5006220;28;20083;-74
2022/04/13 04:08:06;;;;;;;6.43;3.47;;;9.30;99.90;;;;;;5009434;28;20025;-71
2022/04/13 04:10:33;;;;;;;6.45;3.25;;;9.30;99.90;;;;;;5008162;28;20117;-75
2022/04/13 04:12:58;;;;;;;13.35;4.03;;;9.30;99.90;;;;;;5008920;28;20378;-74
2022/04/13 04:15:24;;;;;;;10.82;3.78;;;9.40;99.90;;;;;;5006076;28;20018;-74
2022/04/13 04:17:50;;;;;;;9.25;4.65;;;9.30;99.90;;;;;;5006604;28;20030;-70
2022/04/13 04:20:16;;;;;;;11.50;4.72;;;9.40;99.90;;;;;;5013070;28;20033;-72
2022/04/13 04:22:42;;;;;;;10.15;4.03;;;9.30;99.90;;;;;;5014162;28;20571;-70
2022/04/13 04:25:09;;;;;;;7.47;4.47;;;9.20;99.90;;;;;;5012829;28;20100;-71
2022/04/13 04:27:35;;;;;;;13.88;4.50;;;9.10;99.90;;;;;;5012563;28;20049;-71
2022/04/13 04:30:02;;;;;;;9.60;3.88;;;8.90;99.90;;;;;;5011378;28;20053;-72
2022/04/13 04:32:28;;;;;;;7.18;4.10;;;8.80;99.90;;;;;;5007887;28;20096;-71
2022/04/13 04:34:53;;;;;;;7.63;4.13;;;8.80;99.90;;;;;;5010046;28;20484;-70
2022/04/13 04:37:19;;;;;;;5.57;4.32;;;8.90;99.90;;;;;;5011485;28;20603;-71
2022/04/13 04:39:45;;;;;;;9.43;4.57;;;8.90;99.90;;;;;;5012901;28;20030;-73
2022/04/13 04:42:11;;;;;;;14.63;4.28;;;8.80;99.90;;;;;;5011895;28;20489;-74
2022/04/13 04:44:37;;;;;;;10.82;4.68;;;9.00;99.90;;;;;;5013134;28;20022;-72
2022/04/13 04:47:03;;;;;;;6.63;2.60;;;9.20;99.90;;;;;;5012917;28;20021;-71
2022/04/13 04:49:29;;;;;;;14.65;4.85;;;9.30;99.90;;;;;;5012997;28;20018;-73
2022/04/13 04:51:55;;;;;;;13.25;4.60;;;9.50;99.90;;;;;;5009768;28;20056;-72
2022/04/13 04:54:20;;;;;;;14.85;4.00;;;9.50;99.90;;;;;;5011892;28;20025;-74
2022/04/13 04:56:47;;;;;;;10.20;5.35;;;9.50;99.90;;;;;;5009114;28;20420;-70
2022/04/13 04:59:15;;;;;;;8.05;4.97;;;9.50;99.90;;;;;;5011220;28;20030;-71
2022/04/13 05:01:41;;;;;;;9.93;4.05;;;9.50;99.90;;;;;;5012535;28;20030;-69
2022/04/13 05:04:07;;;;;;;14.55;5.60;;;9.50;99.90;;;;;;5008341;28;20026;-74
2022/04/13 05:06:33;;;;;;;21.45;5.55;;;9.60;99.90;;;;;;5011964;28;20026;-72
2022/04/13 05:08:59;;;;;;;9.95;4.80;;;9.60;99.90;;;;;;5013379;28;20602;-70
2022/04/13 05:11:24;;;;;;;15.38;7.57;;;9.60;99.90;;;;;;5009164;28;20399;-71
2022/04/13 05:13:50;;;;;;;12.68;6.55;;;9.60;99.90;;;;;;5007496;28;20033;-70
2022/04/13 05:16:17;;;;;;;11.40;4.95;;;9.70;99.90;;;;;;5011849;28;20533;-74
2022/04/13 05:18:47;;;;;;;10.77;4.55;;;9.80;99.90;;;;;;5012896;28;20152;-71
2022/04/13 05:21:14;;;;;;;14.00;4.78;;;9.90;99.90;;;;;;5012782;28;20482;-72
2022/04/13 05:23:41;;;;;;;10.77;4.20;;;9.90;99.90;;;;;;5010862;28;20564;-70
2022/04/13 05:26:07;;;;;;;8.32;3.47;;;10.00;99.90;;;;;;5009344;28;20040;-70
2022/04/13 05:28:33;;;;;;;12.30;4.43;;;10.00;99.90;;;;;;5012860;28;20084;-73
2022/04/13 05:30:58;;;;;;;10.98;4.32;;;10.00;99.90;;;;;;5014003;28;20425;-74
2022/04/13 05:33:24;;;;;;;28.70;4.80;;;10.20;99.90;;;;;;5014010;28;20517;-69
2022/04/13 05:35:50;;;;;;;12.82;3.95;;;10.10;99.90;;;;;;5012936;28;20030;-70
2022/04/13 05:38:17;;;;;;;15.13;5.03;;;10.10;99.90;;;;;;5011983;28;20045;-70
2022/04/13 05:40:43;;;;;;;14.18;5.00;;;10.20;99.90;;;;;;5017443;28;20080;-71
2022/04/13 05:43:08;;;;;;;15.85;4.90;;;10.30;99.90;;;;;;5014933;28;20037;-70
2022/04/13 05:45:34;;;;;;;10.88;5.88;;;10.40;99.90;;;;;;5011639;28;20018;-71
2022/04/13 05:48:00;;;;;;;9.82;5.43;;;10.40;99.90;;;;;;5012841;28;20022;-73
2022/04/13 05:50:27;;;;;;;13.05;4.85;;;10.50;99.90;;;;;;5012409;28;20034;-71
2022/04/13 05:52:53;;;;;;;13.52;5.85;;;10.50;99.90;;;;;;5012231;28;20382;-70
2022/04/13 05:55:18;;;;;;;19.10;4.40;;;10.60;99.90;;;;;;5012210;28;20097;-71
2022/04/13 05:57:44;;;;;;;8.07;4.20;;;10.70;99.90;;;;;;5011876;28;20033;-70
2022/04/13 06:00:12;;;;;;;18.17;5.13;;;10.90;99.90;;;;;;5012577;28;20037;-74
2022/04/13 06:02:39;;;;;;;12.27;5.03;;;11.10;99.90;;;;;;5007601;28;20092;-72
2022/04/13 06:05:06;;;;;;;10.63;4.70;;;11.20;99.90;;;;;;5008604;28;20092;-71
2022/04/13 06:07:32;;;;;;;20.27;4.63;;;11.30;99.90;;;;;;5009084;28;20042;-74
2022/04/13 06:10:01;;;;;;;24.98;5.20;;;11.40;99.90;;;;;;5007583;28;20040;-74
2022/04/13 06:12:28;;;;;;;9.27;4.82;;;11.70;99.90;;;;;;5012683;28;20024;-72
2022/04/13 06:15:04;;;;;;;9.10;5.22;;;11.80;99.90;;;;;;5012411;28;20034;-73
2022/04/13 06:17:30;;;;;;;12.43;4.68;;;12.00;99.90;;;;;;4994599;28;20022;-75
2022/04/13 06:19:55;;;;;;;8.18;4.40;;;12.00;99.90;;;;;;5011027;28;20030;-77
2022/04/13 06:22:21;;;;;;;8.93;5.20;;;12.40;99.90;;;;;;5011408;28;20198;-72
2022/04/13 06:24:51;;;;;;;13.70;5.50;;;12.50;99.90;;;;;;5011497;28;20064;-70
2022/04/13 06:27:18;;;;;;;16.92;4.60;;;12.60;99.90;;;;;;5009661;28;20481;-70
2022/04/13 06:29:44;;;;;;;14.35;4.68;;;12.60;99.90;;;;;;5011034;28;20018;-73
2022/04/13 06:32:10;;;;;;;7.45;4.00;;;12.70;99.90;;;;;;5009912;28;20041;-73
2022/04/13 06:34:37;;;;;;;13.32;4.45;;;12.90;99.90;;;;;;5010058;28;20029;-73
2022/04/13 06:37:03;;;;;;;14.63;4.43;;;13.10;99.90;;;;;;5009681;28;20034;-72
2022/04/13 06:39:28;;;;;;;14.00;5.57;;;13.30;99.90;;;;;;5010218;28;20112;-71
2022/04/13 06:41:54;;;;;;;15.82;4.40;;;13.50;99.90;;;;;;5010764;28;20504;-71
2022/04/13 06:44:21;;;;;;;14.90;4.70;;;13.50;99.90;;;;;;5011584;28;20037;-74
2022/04/13 06:46:47;;;;;;;11.43;4.93;;;13.60;99.90;;;;;;5012355;28;20042;-74
2022/04/13 06:49:12;;;;;;;13.25;5.18;;;13.60;99.90;;;;;;5005430;28;20490;-73
2022/04/13 06:51:38;;;;;;;6.18;4.15;;;13.60;99.90;;;;;;5010959;28;20026;-70
2022/04/13 06:54:04;;;;;;;13.05;4.47;;;13.70;99.90;;;;;;5010636;28;20030;-71
2022/04/13 06:56:32;;;;;;;11.57;3.70;;;13.80;99.90;;;;;;5010717;28;20391;-70
2022/04/13 06:58:58;;;;;;;11.30;4.55;;;13.90;99.90;;;;;;5010576;28;20018;-70
2022/04/13 07:01:24;;;;;;;10.57;4.80;;;14.10;99.90;;;;;;5010403;28;20120;-69
2022/04/13 07:03:50;;;;;;;14.88;4.47;;;14.30;99.90;;;;;;5009644;28;20109;-71
2022/04/13 07:06:15;;;;;;;21.13;6.45;;;14.40;99.90;;;;;;5010764;28;20092;-72
2022/04/13 07:08:41;;;;;;;6.30;5.03;;;14.50;99.90;;;;;;5010181;28;20014;-76
2022/04/13 07:11:07;;;;;;;8.70;4.93;;;14.50;99.90;;;;;;5008629;28;20018;-74
2022/04/13 07:13:33;;;;;;;12.85;5.28;;;14.80;99.90;;;;;;5010244;28;20025;-72
2022/04/13 07:15:58;;;;;;;22.15;5.63;;;14.90;99.90;;;;;;5010404;28;20080;-65
2022/04/13 07:18:25;;;;;;;9.10;5.68;;;15.00;99.90;;;;;;5010065;28;20048;-65
2022/04/13 07:20:51;;;;;;;12.85;6.80;;;15.10;99.90;;;;;;5009182;28;20390;-66
2022/04/13 07:23:16;;;;;;;14.50;6.72;;;15.20;99.90;;;;;;5009777;28;20030;-65
2022/04/13 07:25:42;;;;;;;11.57;6.68;;;15.10;99.90;;;;;;5006975;28;20480;-66
2022/04/13 07:28:08;;;;;;;23.17;7.40;;;15.00;99.90;;;;;;5009974;28;20053;-67
2022/04/13 07:30:34;;;;;;;16.77;9.38;;;14.80;99.90;;;;;;5008708;28;20045;-67
2022/04/13 07:33:01;;;;;;;15.77;8.50;;;14.80;99.90;;;;;;5006002;28;20075;-66
2022/04/13 07:35:28;;;;;;;22.80;9.23;;;14.70;99.90;;;;;;5008226;28;20029;-66
2022/04/13 07:37:55;;;;;;;12.23;7.78;;;14.80;99.90;;;;;;5005318;28;20038;-65
2022/04/13 07:40:21;;;;;;;16.50;7.90;;;14.80;99.90;;;;;;5011426;28;20549;-64
2022/04/13 07:42:46;;;;;;;10.27;7.20;;;14.80;99.90;;;;;;5003315;28;20065;-66
2022/04/13 07:45:12;;;;;;;14.45;7.68;;;14.80;99.90;;;;;;5011709;28;20026;-65
2022/04/13 07:47:39;;;;;;;13.85;7.25;;;14.90;99.90;;;;;;5014471;28;20022;-65
2022/04/13 07:50:07;;;;;;;8.90;6.93;;;14.90;99.90;;;;;;5015455;28;20417;-65
2022/04/13 07:52:37;;;;;;;19.70;7.75;;;14.90;99.90;;;;;;5015352;28;20029;-66
2022/04/13 07:55:03;;;;;;;14.98;8.85;;;15.00;99.90;;;;;;5019921;28;20061;-65
2022/04/13 07:57:29;;;;;;;11.65;9.98;;;15.20;99.90;;;;;;5016150;28;20018;-66
2022/04/13 07:59:55;;;;;;;16.27;5.75;;;15.20;99.90;;;;;;5009370;28;20037;-65
2022/04/13 08:02:22;;;;;;;14.55;5.60;;;15.20;99.90;;;;;;5014760;28;20470;-65
2022/04/13 08:04:48;;;;;;;10.30;4.82;;;15.30;99.90;;;;;;5013732;28;20053;-65
2022/04/13 08:07:14;;;;;;;10.70;6.57;;;15.30;99.90;;;;;;5014730;28;20025;-65
2022/04/13 08:09:41;;;;;;;15.30;5.50;;;15.30;99.90;;;;;;5014424;28;20022;-65
2022/04/13 08:12:07;;;;;;;12.30;6.03;;;15.40;99.90;;;;;;5025011;28;20466;-66
2022/04/13 08:14:32;;;;;;;11.05;6.97;;;15.40;99.90;;;;;;5034473;28;20637;-65
2022/04/13 08:16:59;;;;;;;13.27;5.80;;;15.30;99.90;;;;;;5032780;28;20059;-65
2022/04/13 08:19:25;;;;;;;14.77;6.57;;;15.40;99.90;;;;;;5013959;28;20554;-66
2022/04/13 08:21:50;;;;;;;16.15;5.93;;;15.30;99.90;;;;;;5014389;28;20109;-65
2022/04/13 08:24:19;;;;;;;9.40;5.90;;;15.40;99.90;;;;;;5014840;28;20548;-65
2022/04/13 08:26:45;;;;;;;11.02;5.55;;;15.30;99.90;;;;;;5012396;28;20022;-65
2022/04/13 08:29:11;;;;;;;9.93;4.88;;;15.30;99.90;;;;;;5011194;28;20032;-65
2022/04/13 08:31:37;;;;;;;8.18;4.93;;;15.20;99.90;;;;;;5011698;28;20026;-65
2022/04/13 08:34:03;;;;;;;17.55;5.50;;;15.30;99.90;;;;;;5014474;28;20426;-66
2022/04/13 08:36:28;;;;;;;6.10;4.88;;;15.30;99.90;;;;;;5014409;28;20069;-67
2022/04/13 08:38:54;;;;;;;11.55;6.30;;;15.30;99.90;;;;;;5014272;28;20061;-66
2022/04/13 08:41:55;;;;;;;10.75;5.28;;;15.30;99.90;;;;;;5014138;28;20026;-65
2022/04/13 08:44:38;;;;;;;15.88;5.20;;;15.20;99.90;;;;;;5013862;28;20038;-65
2022/04/13 08:47:11;;;;;;;8.50;4.38;;;15.30;99.90;;;;;;5032982;28;20017;-65
2022/04/13 08:49:40;;;;;;;14.88;5.38;;;15.20;99.90;;;;;;5033364;28;20075;-65
2022/04/13 08:52:08;;;;;;;6.70;3.45;;;15.30;99.90;;;;;;5034312;28;20526;-65
2022/04/13 08:54:50;;;;;;;10.00;4.03;;;15.40;99.90;;;;;;5023149;28;20025;-66
2022/04/13 08:57:21;;;;;;;9.98;3.53;;;15.50;99.90;;;;;;5015250;28;20022;-65
2022/04/13 09:00:03;;;;;;;10.13;3.35;;;15.50;99.90;;;;;;5001503;28;20403;-66
2022/04/13 09:02:50;;;;;;;6.40;3.45;;;15.60;99.90;;;;;;5011817;28;20030;-66
2022/04/13 09:05:23;;;;;;;18.95;3.70;;;15.80;99.90;;;;;;5011491;28;20083;-65
2022/04/13 09:08:08;;;;;;;9.77;3.13;;;15.80;99.90;;;;;;5013105;28;20061;-65
2022/04/13 09:10:36;;;;;;;11.32;3.70;;;15.80;99.90;;;;;;5012803;28;20382;-66
2022/04/13 09:13:02;;;;;;;12.07;4.93;;;15.80;99.90;;;;;;5011937;28;20057;-65
2022/04/13 09:15:28;;;;;;;9.00;3.40;;;15.80;99.90;;;;;;5013564;28;20022;-66
2022/04/13 09:17:55;;;;;;;7.65;3.60;;;15.80;99.90;;;;;;5013615;28;20037;-65
2022/04/13 09:20:20;;;;;;;6.47;3.83;;;16.00;99.90;;;;;;5011879;28;20022;-65
2022/04/13 09:22:49;;;;;;;8.15;3.53;;;16.00;99.90;;;;;;5012699;28;20038;-66
2022/04/13 09:25:18;;;;;;;8.02;3.03;;;16.10;99.90;;;;;;5013667;28;20102;-66
2022/04/13 09:27:44;;;;;;;5.68;2.88;;;16.10;99.90;;;;;;5012453;28;20052;-65
2022/04/13 09:30:10;;;;;;;6.75;2.95;;;16.00;99.90;;;;;;5011680;28;20101;-65
2022/04/13 09:32:36;;;;;;;7.72;3.33;;;16.10;99.90;;;;;;5013468;28;20054;-66
2022/04/13 09:35:03;;;;;;;6.28;3.40;;;16.20;99.90;;;;;;5015233;28;20101;-65
2022/04/13 09:37:29;;;;;;;6.47;2.40;;;16.30;99.90;;;;;;5011988;28;20040;-66
2022/04/13 09:39:55;;;;;;;6.05;2.78;;;16.20;99.90;;;;;;5011522;28;20039;-66
2022/04/13 09:42:28;;;;;;;5.20;3.50;;;16.10;99.90;;;;;;5011942;28;20042;-65
2022/04/13 09:44:58;;;;;;;6.00;2.72;;;16.10;99.90;;;;;;5014841;28;20029;-65
2022/04/13 09:47:30;;;;;;;6.28;3.88;;;16.20;99.90;;;;;;5014135;28;20076;-67
2022/04/13 09:49:56;;;;;;;4.85;3.28;;;16.20;99.90;;;;;;5013998;28;20026;-65
2022/04/13 09:52:37;;;;;;;12.02;3.08;;;16.20;99.90;;;;;;5018122;28;20041;-67
2022/04/13 09:55:08;;;;;;;6.60;2.55;;;16.30;99.90;;;;;;5015728;28;20559;-66
2022/04/13 09:57:34;;;;;;;6.97;2.85;;;16.30;99.90;;;;;;5019020;28;20037;-65
2022/04/13 10:00:02;;;;;;;3.20;1.85;;;16.30;99.90;;;;;;5018916;28;20391;-66
2022/04/13 10:02:39;;;;;;;6.45;2.33;;;16.40;99.90;;;;;;5013015;28;20073;-65
2022/04/13 10:05:19;;;;;;;3.38;2.38;;;16.10;99.90;;;;;;5018376;28;20037;-67
2022/04/13 10:08:00;;;;;;;8.95;2.17;;;16.20;99.90;;;;;;5014477;28;20026;-65
2022/04/13 10:10:25;;;;;;;5.38;2.47;;;16.20;99.90;;;;;;5014381;28;20021;-65
2022/04/13 10:12:52;;;;;;;6.47;2.42;;;16.20;99.90;;;;;;5016732;28;20482;-65
2022/04/13 10:15:18;;;;;;;3.53;2.30;;;16.40;99.90;;;;;;5013144;28;20105;-66
2022/04/13 10:17:44;;;;;;;6.93;2.53;;;16.50;99.90;;;;;;5014153;28;20053;-66
2022/04/13 10:20:10;;;;;;;4.90;3.10;;;16.50;99.90;;;;;;5012521;28;20026;-66
2022/04/13 10:23:01;;;;;;;7.15;3.13;;;16.30;99.90;;;;;;5011360;28;20018;-66
2022/04/13 10:25:28;;;;;;;3.33;2.17;;;16.40;99.90;;;;;;5012969;28;20038;-67
2022/04/13 10:27:54;;;;;;;3.58;2.15;;;16.40;99.90;;;;;;5012941;28;20030;-65
2022/04/13 10:30:27;;;;;;;4.15;2.00;;;16.30;99.90;;;;;;5013370;28;20026;-67
2022/04/13 10:33:02;;;;;;;4.63;2.40;;;16.40;99.90;;;;;;5009989;28;20099;-65
2022/04/13 10:35:29;;;;;;;3.65;1.92;;;16.60;99.90;;;;;;5012948;28;20041;-66
2022/04/13 10:37:57;;;;;;;11.10;2.17;;;16.70;99.90;;;;;;5011536;28;20108;-67
2022/04/13 10:40:30;;;;;;;9.15;3.70;;;16.60;99.90;;;;;;5001503;28;20058;-65
2022/04/13 10:42:59;;;;;;;3.30;2.50;;;16.90;99.90;;;;;;5009183;28;20113;-67
2022/04/13 10:45:28;;;;;;;11.05;3.95;;;17.00;99.90;;;;;;5011532;28;20018;-65
2022/04/13 10:47:57;;;;;;;4.47;2.42;;;16.90;99.90;;;;;;5010711;28;20021;-66
2022/04/13 10:50:46;;;;;;;6.38;3.88;;;17.00;99.90;;;;;;5012517;28;20029;-66
2022/04/13 10:53:18;;;;;;;6.20;2.92;;;16.90;99.90;;;;;;5007661;28;20145;-66
2022/04/13 10:55:50;;;;;;;12.82;2.83;;;17.00;99.90;;;;;;5011658;28;20050;-65
2022/04/13 10:58:25;;;;;;;4.10;2.58;;;17.00;99.90;;;;;;5011833;28;20029;-66
2022/04/13 11:00:57;;;;;;;4.70;2.08;;;17.00;99.90;;;;;;5008477;28;20029;-65
2022/04/13 11:03:25;;;;;;;;;;;17.00;99.90;;;;;;5011280;28;20091;-66
2022/04/13 11:05:51;;;;;;;7.65;2.45;;;17.10;99.90;;;;;;5012056;28;20365;-66
2022/04/13 11:08:44;;;;;;;4.40;2.03;;;17.10;99.90;;;;;;5010866;28;20030;-65
2022/04/13 11:11:17;;;;;;;5.53;2.10;;;17.10;99.90;;;;;;5008450;28;20101;-66
2022/04/13 11:13:48;;;;;;;5.93;2.42;;;17.00;99.90;;;;;;5011127;28;20045;-65
2022/04/13 11:16:21;;;;;;;5.65;2.15;;;16.90;99.90;;;;;;5011561;28;20442;-66
2022/04/13 11:19:04;;;;;;;4.13;1.98;;;16.90;99.90;;;;;;5011945;28;20556;-66
2022/04/13 11:21:30;;;;;;;6.68;2.38;;;16.90;99.90;;;;;;5008995;28;20030;-66
2022/04/13 11:23:56;;;;;;;5.32;2.13;;;16.90;99.90;;;;;;5010373;28;20045;-66
2022/04/13 11:26:34;;;;;;;3.40;2.00;;;16.80;99.90;;;;;;5013045;28;20045;-67
2022/04/13 11:29:12;;;;;;;2.47;1.48;;;16.90;99.90;;;;;;5010281;28;20041;-66
2022/04/13 11:32:10;;;;;;;8.05;2.60;;;16.90;99.90;;;;;;5011245;28;20041;-65
2022/04/13 11:34:41;;;;;;;6.20;3.03;;;16.90;99.90;;;;;;5009915;28;20481;-64
2022/04/13 11:37:18;;;;;;;4.78;2.40;;;17.00;99.90;;;;;;5007585;28;20212;-66
2022/04/13 11:39:50;;;;;;;10.43;2.95;;;17.10;99.90;;;;;;5010413;28;20026;-66
2022/04/13 11:42:25;;;;;;;7.43;2.50;;;17.10;99.90;;;;;;5009710;28;20038;-66
2022/04/13 11:44:59;;;;;;;4.40;1.75;;;17.20;99.90;;;;;;5010923;28;20040;-66
2022/04/13 11:47:39;;;;;;;7.38;1.98;;;17.30;99.90;;;;;;5011589;28;20560;-66
2022/04/13 11:50:27;;;;;;;3.45;2.30;;;17.20;99.90;;;;;;5009316;28;20026;-66
2022/04/13 11:52:59;;;;;;;2.22;1.80;;;17.20;99.90;;;;;;5009607;28;20018;-66
2022/04/13 11:55:37;;;;;;;4.30;1.77;;;17.20;99.90;;;;;;5009218;28;20022;-66
2022/04/13 11:58:08;;;;;;;3.42;1.50;;;17.10;99.90;;;;;;5006713;28;20470;-65
2022/04/13 12:00:55;;;;;;;4.75;2.00;;;17.10;99.90;;;;;;5008474;28;20037;-65
2022/04/13 12:03:22;;;;;;;4.60;1.90;;;17.10;99.90;;;;;;5007936;28;20057;-67
2022/04/13 12:05:52;;;;;;;2.83;1.88;;;17.20;99.90;;;;;;5009605;28;20381;-67
2022/04/13 12:08:21;;;;;;;2.47;1.10;;;17.30;99.90;;;;;;5008710;28;20042;-67
2022/04/13 12:10:58;;;;;;;5.00;1.60;;;17.40;99.90;;;;;;5008541;28;20434;-65
2022/04/13 12:13:26;;;;;;;2.65;1.08;;;17.40;99.90;;;;;;5009273;28;20105;-67
2022/04/13 12:15:54;;;;;;;3.67;1.45;;;17.30;99.90;;;;;;5010356;28;20513;-66
2022/04/13 12:18:22;;;;;;;7.00;2.35;;;17.20;99.90;;;;;;5010246;28;20046;-65
2022/04/13 12:20:53;;;;;;;9.30;2.45;;;17.10;99.90;;;;;;5008320;28;20385;-65
2022/04/13 12:23:26;;;;;;;5.25;2.17;;;17.20;99.90;;;;;;5008474;28;20505;-67
2022/04/13 12:25:57;;;;;;;7.10;2.22;;;17.30;99.90;;;;;;5008599;28;20053;-67
2022/04/13 12:28:24;;;;;;;5.32;3.00;;;17.40;99.90;;;;;;5004986;28;20029;-65
2022/04/13 12:31:06;;;;;;;4.65;1.92;;;17.40;99.90;;;;;;5008281;28;20089;-66
2022/04/13 12:33:33;;;;;;;5.30;1.98;;;17.20;99.90;;;;;;5005983;28;20022;-66
2022/04/13 12:36:05;;;;;;;4.10;2.22;;;17.20;99.90;;;;;;5011645;28;20632;-66
2022/04/13 12:39:06;;;;;;;4.78;1.98;;;17.20;99.90;;;;;;4977851;28;20022;-66
2022/04/13 12:41:32;;;;;;;2.15;1.20;;;17.20;99.90;;;;;;5010014;28;20060;-66
2022/04/13 12:44:02;;;;;;;5.68;1.08;;;17.20;99.90;;;;;;5009899;28;20026;-65
2022/04/13 12:46:31;;;;;;;2.45;1.38;;;17.10;99.90;;;;;;5014230;28;20021;-65
2022/04/13 12:49:05;;;;;;;3.20;1.25;;;17.20;99.90;;;;;;5012607;28;20022;-65
2022/04/13 12:51:32;;;;;;;3.88;1.48;;;17.20;99.90;;;;;;4996199;28;20379;-66
2022/04/13 12:54:02;;;;;;;2.70;1.42;;;17.30;99.90;;;;;;5009360;28;20026;-67